Terminal Aerodrome Forecast
Issued by NWS Cleveland, OH

Home | Current Version | Previous Version | Graphics & Text | Print | Product List | Glossary On
Versions: 1 2 3 4 5 6 7 8 9 10 11 12 13 14 15 16 17 18 19 20 21 22 23
000
FTUS41 KCLE 210539
TAFYNG
TAF
KYNG 210539Z 2106/2206 VRB04KT 6SM BR SCT045
     FM210800 18003KT 3SM BR OVC015
      TEMPO 2108/2110 2SM BR
     FM211000 18006KT 2SM BR OVC006
      TEMPO 2110/2113 1SM BR OVC002
     FM211400 18008KT 4SM BR BKN025
     FM211800 19012KT P6SM BKN035=

USA.gov is the U.S. government's official web portal to all federal, state and local government web resources and services.